createdAt,value
2017-08-01T00:00:33.807Z,67.33
2017-08-01T00:01:46.336Z,67.43
2017-08-01T00:02:57.980Z,67.14
2017-08-01T00:04:08.590Z,66.95
2017-08-01T00:05:17.698Z,67.53
2017-08-01T00:06:26.767Z,67.24
2017-08-01T00:07:35.723Z,67.43
2017-08-01T00:08:44.692Z,67.33
2017-08-01T00:09:53.688Z,67.53
2017-08-01T00:11:02.667Z,66.85
2017-08-01T00:12:11.625Z,67.53
2017-08-01T00:13:20.657Z,66.85
2017-08-01T00:14:30.014Z,66.85
2017-08-01T00:15:39.024Z,67.53
2017-08-01T00:16:48.038Z,67.14
2017-08-01T00:17:57.164Z,67.33
2017-08-01T00:19:06.267Z,67.05
2017-08-01T00:20:15.324Z,67.24
2017-08-01T00:21:24.529Z,67.14
2017-08-01T00:22:33.574Z,66.95
2017-08-01T00:23:42.548Z,67.63
2017-08-01T00:24:51.955Z,67.33
2017-08-01T00:26:00.957Z,67.24
2017-08-01T00:27:10.027Z,67.33
2017-08-01T00:28:19.023Z,67.33
2017-08-01T00:29:27.983Z,67.33
2017-08-01T00:30:37.287Z,67.43
2017-08-01T00:31:46.248Z,67.14
2017-08-01T00:32:55.408Z,67.43
2017-08-01T00:34:04.546Z,67.43
2017-08-01T00:35:13.561Z,67.53
2017-08-01T00:36:22.716Z,67.63
2017-08-01T00:37:32.041Z,67.63
2017-08-01T00:38:41.424Z,67.43
2017-08-01T00:39:50.456Z,67.43
2017-08-01T00:40:59.530Z,67.63
2017-08-01T00:42:08.512Z,67.72
2017-08-01T00:43:17.551Z,67.91
2017-08-01T00:44:26.772Z,68.11
2017-08-01T00:45:35.879Z,68.01
2017-08-01T00:46:45.190Z,68.11
2017-08-01T00:47:54.191Z,68.11
2017-08-01T00:49:03.667Z,67.91
2017-08-01T00:50:12.807Z,68.11
2017-08-01T00:51:21.922Z,68.01
2017-08-01T00:52:30.932Z,67.91
2017-08-01T00:53:40.094Z,67.88
2017-08-01T00:54:49.060Z,67.72
2017-08-01T00:55:58.173Z,67.82
2017-08-01T00:57:07.268Z,68.01
2017-08-01T00:58:16.798Z,67.91
2017-08-01T00:59:25.759Z,68.01
2017-08-01T01:00:34.857Z,68.49
2017-08-01T01:01:43.819Z,68.56
2017-08-01T01:02:52.780Z,68.49
2017-08-01T01:04:01.740Z,68.49
2017-08-01T01:05:10.731Z,68.59
2017-08-01T01:06:19.691Z,68.3
2017-08-01T01:07:28.653Z,68.3
2017-08-01T01:08:37.607Z,68.21
2017-08-01T01:09:46.560Z,68.49
2017-08-01T01:10:55.519Z,68.56
2017-08-01T01:12:04.483Z,68.4
2017-08-01T01:13:13.441Z,68.49
2017-08-01T01:14:22.411Z,68.3
2017-08-01T01:15:31.369Z,68.4
2017-08-01T01:16:40.330Z,68.3
2017-08-01T01:17:49.297Z,68.56
2017-08-01T01:18:58.260Z,68.88
2017-08-01T01:20:07.219Z,68.56
2017-08-01T01:21:16.188Z,68.59
2017-08-01T01:22:25.150Z,68.98
2017-08-01T01:23:34.111Z,69.04
2017-08-01T01:24:43.072Z,68.75
2017-08-01T01:25:52.028Z,68.66
2017-08-01T01:27:00.983Z,68.56
2017-08-01T01:28:09.944Z,68.46
2017-08-01T01:29:19.226Z,68.56
2017-08-01T01:30:28.188Z,68.75
2017-08-01T01:31:37.149Z,68.85
2017-08-01T01:32:46.120Z,68.95
2017-08-01T01:33:55.081Z,68.56
2017-08-01T01:35:04.051Z,69.14
2017-08-01T01:36:13.023Z,69.43
2017-08-01T01:37:22.295Z,69.24
2017-08-01T01:38:31.252Z,68.95
2017-08-01T01:39:40.208Z,69.14
2017-08-01T01:40:49.173Z,69.33
2017-08-01T01:41:58.130Z,69.53
2017-08-01T01:43:07.084Z,69.56
2017-08-01T01:44:16.048Z,69.53
2017-08-01T01:45:25.008Z,69.72
2017-08-01T01:46:33.972Z,69.53
2017-08-01T01:47:42.929Z,70.1
2017-08-01T01:48:51.890Z,69.82
2017-08-01T01:50:01.176Z,69.82
2017-08-01T01:51:10.139Z,69.92
2017-08-01T01:52:19.101Z,70.01
2017-08-01T01:53:28.068Z,70.01
2017-08-01T01:54:37.033Z,69.72
2017-08-01T01:55:45.989Z,70.1
2017-08-01T01:56:54.956Z,70.01
2017-08-01T01:58:04.250Z,69.72
2017-08-01T01:59:13.224Z,69.92
2017-08-01T02:00:22.598Z,69.92
2017-08-01T02:01:31.643Z,70.5
2017-08-01T02:02:40.605Z,70.4
2017-08-01T02:03:49.560Z,70.3
2017-08-01T02:04:58.518Z,70.4
2017-08-01T02:06:07.484Z,71.17
2017-08-01T02:07:16.443Z,70.88
2017-08-01T02:08:25.404Z,70.59
2017-08-01T02:09:34.365Z,71.08
2017-08-01T02:10:43.640Z,70.5
2017-08-01T02:11:52.918Z,70.68
2017-08-01T02:13:02.203Z,70.98
2017-08-01T02:14:11.164Z,70.68
2017-08-01T02:15:20.437Z,70.78
2017-08-01T02:16:29.721Z,70.88
2017-08-01T02:17:38.686Z,70.88
2017-08-01T02:18:47.985Z,70.98
2017-08-01T02:19:56.940Z,71.08
2017-08-01T02:21:06.231Z,70.88
2017-08-01T02:22:15.192Z,70.78
2017-08-01T02:23:24.153Z,70.88
2017-08-01T02:24:33.115Z,70.78
2017-08-01T02:25:42.070Z,70.68
2017-08-01T02:26:51.024Z,70.98
2017-08-01T02:27:59.989Z,70.84
2017-08-01T02:29:08.958Z,70.78
2017-08-01T02:30:18.242Z,70.68
2017-08-01T02:31:27.214Z,70.98
2017-08-01T02:32:36.173Z,70.59
2017-08-01T02:33:45.133Z,70.88
2017-08-01T02:34:54.096Z,71.08
2017-08-01T02:36:03.077Z,71.17
2017-08-01T02:37:12.130Z,71.17
2017-08-01T02:38:21.095Z,71.08
2017-08-01T02:39:30.050Z,70.88
2017-08-01T02:40:39.018Z,71.17
2017-08-01T02:41:47.977Z,71.17
2017-08-01T02:42:56.944Z,71.46
2017-08-01T02:44:05.901Z,71.26
2017-08-01T02:45:14.852Z,71.17
2017-08-01T02:46:23.825Z,71.26
2017-08-01T02:47:32.784Z,71.26
2017-08-01T02:48:41.751Z,71.17
2017-08-01T02:49:50.720Z,71.26
2017-08-01T02:50:59.680Z,71.36
2017-08-01T02:52:08.646Z,71.26
2017-08-01T02:53:17.611Z,71.36
2017-08-01T02:54:26.565Z,71.36
2017-08-01T02:55:35.532Z,72.24
2017-08-01T02:56:44.490Z,73.59
2017-08-01T02:57:53.449Z,74.65
2017-08-01T02:59:02.413Z,75.23
2017-08-01T03:00:11.378Z,76.49
2017-08-01T03:01:20.340Z,77.22
2017-08-01T03:02:29.304Z,78.96
2017-08-01T03:03:38.608Z,80.61
2017-08-01T03:04:47.564Z,81.77
2017-08-01T03:05:56.525Z,82.06
2017-08-01T03:07:05.502Z,82.45
2017-08-01T03:08:14.468Z,83.66
2017-08-01T03:09:23.422Z,84.53
2017-08-01T03:10:32.383Z,84.91
2017-08-01T03:11:41.343Z,84.91
2017-08-01T03:12:50.307Z,85.11
2017-08-01T03:13:59.271Z,85.59
2017-08-01T03:15:08.227Z,85.69
2017-08-01T03:16:17.196Z,85.88
2017-08-01T03:17:26.480Z,85.49
2017-08-01T03:18:35.435Z,86.27
2017-08-01T03:19:44.393Z,86.56
2017-08-01T03:20:53.361Z,87.43
2017-08-01T03:22:02.621Z,87.87
2017-08-01T03:23:11.580Z,89.17
2017-08-01T03:24:20.541Z,89.75
2017-08-01T03:25:29.504Z,90.47
2017-08-01T03:26:38.466Z,91.73
2017-08-01T03:27:47.434Z,92.02
2017-08-01T03:28:56.391Z,92.6
2017-08-01T03:30:05.680Z,93.42
2017-08-01T03:31:14.653Z,93.8
2017-08-01T03:32:23.951Z,94.1
2017-08-01T03:33:32.909Z,95.16
2017-08-01T03:34:41.872Z,96.12
2017-08-01T03:35:50.836Z,96.41
2017-08-01T03:36:59.800Z,96.51
2017-08-01T03:38:08.759Z,96.51
2017-08-01T03:39:17.771Z,97.09
2017-08-01T03:40:26.737Z,97.96
2017-08-01T03:41:35.694Z,97.86
2017-08-01T03:42:44.662Z,98.15
2017-08-01T03:43:53.643Z,98.83
2017-08-01T03:45:02.601Z,98.73
2017-08-01T03:46:11.578Z,99.31
2017-08-01T03:47:20.537Z,99.31
2017-08-01T03:48:29.493Z,99.4
2017-08-01T03:49:38.458Z,99.69
2017-08-01T03:50:47.415Z,99.99
2017-08-01T03:51:56.694Z,99.98
2017-08-01T03:53:05.668Z,99.99
2017-08-01T03:54:14.643Z,99.99
2017-08-01T03:55:23.604Z,99.99
2017-08-01T03:56:32.574Z,99.99
2017-08-01T03:57:41.541Z,99.99
2017-08-01T03:58:50.513Z,99.99
2017-08-01T03:59:59.468Z,99.99
2017-08-01T04:01:08.439Z,99.99
2017-08-01T04:02:17.407Z,99.99
2017-08-01T04:03:26.367Z,99.99
2017-08-01T04:04:35.326Z,99.99
2017-08-01T04:05:44.285Z,99.99
2017-08-01T04:06:53.246Z,99.99
2017-08-01T04:08:02.215Z,99.99
2017-08-01T04:09:11.177Z,99.99
2017-08-01T04:10:20.145Z,99.99
2017-08-01T04:11:29.112Z,99.99
2017-08-01T04:12:38.071Z,99.99
2017-08-01T04:13:47.031Z,99.99
2017-08-01T04:14:55.991Z,99.99
2017-08-01T04:16:04.980Z,99.99
2017-08-01T04:17:13.944Z,99.99
2017-08-01T04:18:22.904Z,99.99
2017-08-01T04:19:31.860Z,99.99
2017-08-01T04:20:41.144Z,99.99
2017-08-01T04:21:50.106Z,99.99
2017-08-01T04:22:59.064Z,99.99
2017-08-01T04:24:08.025Z,99.99
2017-08-01T04:25:16.979Z,99.99
2017-08-01T04:26:25.931Z,99.99
2017-08-01T04:27:34.903Z,99.99
2017-08-01T04:28:43.869Z,99.99
2017-08-01T04:29:52.835Z,99.99
2017-08-01T04:31:01.810Z,99.99
2017-08-01T04:32:11.089Z,99.99
2017-08-01T04:33:20.047Z,99.99
2017-08-01T04:34:29.027Z,99.99
2017-08-01T04:35:37.997Z,99.99
2017-08-01T04:36:47.007Z,99.99
2017-08-01T04:37:55.964Z,99.99
2017-08-01T04:39:04.922Z,99.99
2017-08-01T04:40:13.883Z,99.99
2017-08-01T04:41:22.841Z,99.99
2017-08-01T04:42:32.140Z,99.99
2017-08-01T04:43:41.098Z,99.99
2017-08-01T04:44:50.054Z,99.99
2017-08-01T04:45:59.024Z,99.99
2017-08-01T04:47:07.982Z,99.99
2017-08-01T04:48:16.938Z,99.99
2017-08-01T04:49:25.884Z,99.99
2017-08-01T04:50:34.839Z,99.99
2017-08-01T04:51:43.799Z,99.99
2017-08-01T04:52:52.755Z,99.99
2017-08-01T04:54:01.719Z,99.99
2017-08-01T04:55:10.677Z,99.99
2017-08-01T04:56:19.641Z,99.99
2017-08-01T04:57:28.632Z,99.99
2017-08-01T04:58:37.589Z,99.99
2017-08-01T04:59:46.545Z,99.99
2017-08-01T05:00:55.502Z,99.99
2017-08-01T05:02:04.458Z,99.99
2017-08-01T05:03:13.749Z,99.99
2017-08-01T05:04:22.714Z,99.99
2017-08-01T05:05:31.673Z,99.99
2017-08-01T05:06:40.641Z,99.99
2017-08-01T05:07:49.601Z,99.99
2017-08-01T05:08:58.573Z,99.99
2017-08-01T05:10:07.539Z,99.99
2017-08-01T05:11:16.504Z,99.99
2017-08-01T05:12:25.459Z,99.99
2017-08-01T05:13:34.414Z,99.99
2017-08-01T05:14:43.377Z,99.99
2017-08-01T05:15:52.666Z,99.99
2017-08-01T05:17:01.618Z,99.99
2017-08-01T05:18:10.900Z,99.99
2017-08-01T05:19:19.864Z,99.99
2017-08-01T05:20:28.830Z,99.99
2017-08-01T05:21:37.792Z,99.99
2017-08-01T05:22:46.745Z,99.99
2017-08-01T05:23:55.694Z,99.99
2017-08-01T05:25:04.646Z,99.99
2017-08-01T05:26:13.603Z,99.99
2017-08-01T05:27:22.563Z,99.99
2017-08-01T05:28:31.529Z,99.99
2017-08-01T05:29:40.485Z,99.99
2017-08-01T05:30:49.443Z,99.99
2017-08-01T05:31:58.399Z,99.99
2017-08-01T05:33:07.354Z,99.99
2017-08-01T05:34:16.305Z,99.99
2017-08-01T05:35:25.267Z,99.99
2017-08-01T05:36:34.229Z,99.99
2017-08-01T05:37:43.188Z,99.99
2017-08-01T05:38:52.149Z,99.99
2017-08-01T05:40:01.104Z,99.99
2017-08-01T05:41:10.063Z,99.99
2017-08-01T05:42:19.018Z,99.99
2017-08-01T05:43:27.972Z,99.99
2017-08-01T05:44:36.953Z,99.99
2017-08-01T05:45:45.909Z,99.99
2017-08-01T05:46:54.870Z,99.99
2017-08-01T05:48:03.848Z,99.99
2017-08-01T05:49:12.799Z,99.99
2017-08-01T05:50:21.750Z,99.99
2017-08-01T05:51:30.710Z,99.99
2017-08-01T05:52:39.672Z,99.99
2017-08-01T05:53:48.654Z,99.99
2017-08-01T05:54:57.615Z,99.99
2017-08-01T05:56:06.578Z,99.99
2017-08-01T05:57:15.530Z,99.99
2017-08-01T05:58:24.489Z,99.99
2017-08-01T05:59:33.449Z,99.99
2017-08-01T06:00:42.728Z,99.99
2017-08-01T06:01:51.693Z,99.99
2017-08-01T06:03:00.656Z,99.99
2017-08-01T06:04:09.615Z,99.99
2017-08-01T06:05:18.568Z,99.99
2017-08-01T06:06:27.527Z,99.99
2017-08-01T06:07:36.505Z,99.99
2017-08-01T06:08:45.776Z,99.99
2017-08-01T06:09:54.728Z,99.99
2017-08-01T06:11:03.683Z,99.99
2017-08-01T06:12:12.643Z,99.99
2017-08-01T06:13:21.602Z,99.99
2017-08-01T06:14:30.562Z,99.99
2017-08-01T06:15:39.515Z,99.99
2017-08-01T06:16:48.478Z,99.99
2017-08-01T06:17:57.443Z,99.99
2017-08-01T06:19:06.397Z,99.99
2017-08-01T06:20:15.355Z,99.99
2017-08-01T06:21:24.311Z,99.99
2017-08-01T06:22:33.274Z,99.99
2017-08-01T06:23:42.228Z,99.99
2017-08-01T06:24:51.185Z,99.99
2017-08-01T06:26:00.141Z,99.99
2017-08-01T06:27:09.087Z,99.99
2017-08-01T06:28:18.372Z,99.99
2017-08-01T06:29:27.329Z,99.99
2017-08-01T06:30:36.291Z,99.99
2017-08-01T06:31:45.244Z,99.99
2017-08-01T06:32:54.201Z,99.99
2017-08-01T06:34:03.175Z,99.99
2017-08-01T06:35:12.140Z,99.99
2017-08-01T06:36:21.094Z,99.99
2017-08-01T06:37:30.384Z,99.99
2017-08-01T06:38:39.349Z,99.99
2017-08-01T06:39:48.305Z,99.99
2017-08-01T06:40:57.266Z,99.99
2017-08-01T06:42:06.315Z,99.99
2017-08-01T06:43:15.264Z,99.99
2017-08-01T06:44:24.213Z,99.99
2017-08-01T06:45:33.184Z,99.99
2017-08-01T06:46:42.491Z,99.99
2017-08-01T06:47:51.465Z,99.99
2017-08-01T06:49:00.430Z,99.99
2017-08-01T06:50:09.391Z,99.99
2017-08-01T06:51:18.353Z,99.99
2017-08-01T06:52:27.392Z,99.99
2017-08-01T06:53:36.377Z,99.99
2017-08-01T06:54:45.340Z,99.99
2017-08-01T06:55:54.615Z,99.99
2017-08-01T06:57:03.571Z,99.99
2017-08-01T06:58:12.544Z,99.99
2017-08-01T06:59:21.508Z,99.99
2017-08-01T07:00:30.463Z,99.99
2017-08-01T07:01:39.416Z,99.99
2017-08-01T07:02:48.372Z,99.99
2017-08-01T07:03:57.340Z,99.99
2017-08-01T07:05:06.318Z,99.99
2017-08-01T07:06:15.269Z,99.99
2017-08-01T07:07:24.235Z,99.99
2017-08-01T07:08:33.194Z,99.99
2017-08-01T07:09:42.148Z,99.99
2017-08-01T07:10:51.098Z,99.99
2017-08-01T07:12:00.066Z,99.99
2017-08-01T07:13:09.027Z,99.99
2017-08-01T07:14:17.989Z,99.99
2017-08-01T07:15:26.945Z,99.99
2017-08-01T07:16:35.897Z,99.99
2017-08-01T07:17:44.861Z,99.99
2017-08-01T07:18:53.826Z,99.99
2017-08-01T07:20:02.793Z,99.99
2017-08-01T07:21:11.752Z,99.99
2017-08-01T07:22:20.716Z,99.99
2017-08-01T07:23:29.736Z,99.99
2017-08-01T07:24:39.935Z,99.99
2017-08-01T07:25:48.901Z,99.99
2017-08-01T07:26:57.866Z,99.99
2017-08-01T07:28:06.826Z,99.99
2017-08-01T07:29:15.780Z,99.99
2017-08-01T07:30:24.738Z,99.99
2017-08-01T07:31:33.700Z,99.99
2017-08-01T07:32:42.657Z,99.99
2017-08-01T07:33:51.622Z,99.99
2017-08-01T07:35:00.576Z,99.99
2017-08-01T07:36:09.535Z,99.99
2017-08-01T07:37:18.491Z,99.99
2017-08-01T07:38:27.449Z,99.99
2017-08-01T07:39:36.419Z,99.99
2017-08-01T07:40:45.386Z,99.99
2017-08-01T07:41:54.379Z,99.99
2017-08-01T07:43:03.812Z,99.99
2017-08-01T07:44:13.644Z,99.99
2017-08-01T07:45:22.689Z,99.99
2017-08-01T07:46:31.650Z,99.99
2017-08-01T07:47:40.642Z,99.99
2017-08-01T07:48:49.704Z,99.99
2017-08-01T07:49:58.662Z,99.99
2017-08-01T07:51:07.630Z,99.99
2017-08-01T07:52:16.678Z,99.99
2017-08-01T07:53:25.771Z,99.99
2017-08-01T07:54:34.752Z,99.99
2017-08-01T07:55:43.862Z,99.99
2017-08-01T07:56:52.993Z,99.99
2017-08-01T07:58:02.183Z,99.99
2017-08-01T07:59:11.141Z,99.99
2017-08-01T08:00:20.228Z,99.99
2017-08-01T08:01:29.194Z,99.99
2017-08-01T08:02:38.213Z,99.99
2017-08-01T08:03:47.340Z,99.99
2017-08-01T08:04:56.351Z,99.99
2017-08-01T08:06:05.350Z,99.99
2017-08-01T08:07:14.374Z,99.99
2017-08-01T08:08:23.375Z,99.99
2017-08-01T08:09:32.335Z,99.99
2017-08-01T08:10:41.349Z,99.99
2017-08-01T08:11:50.356Z,99.99
2017-08-01T08:12:59.364Z,99.99
2017-08-01T08:14:08.414Z,99.99
2017-08-01T08:15:17.529Z,99.99
2017-08-01T08:16:26.523Z,99.99
2017-08-01T08:17:35.492Z,99.99
2017-08-01T08:18:44.538Z,99.99
2017-08-01T08:19:53.614Z,99.99
2017-08-01T08:21:02.892Z,99.99
2017-08-01T08:22:11.895Z,99.99
2017-08-01T08:23:21.282Z,99.99
2017-08-01T08:24:30.280Z,99.99
2017-08-01T08:25:39.247Z,99.99
2017-08-01T08:26:48.383Z,99.99
2017-08-01T08:27:57.378Z,99.99
2017-08-01T08:29:06.451Z,99.99
2017-08-01T08:30:15.413Z,99.99
2017-08-01T08:31:24.481Z,99.99
2017-08-01T08:32:33.682Z,99.99
2017-08-01T08:33:42.753Z,99.99
2017-08-01T08:34:51.875Z,99.99
2017-08-01T08:36:00.975Z,99.99
2017-08-01T08:37:10.139Z,99.99
2017-08-01T08:38:19.161Z,99.99
2017-08-01T08:39:28.483Z,99.99
2017-08-01T08:40:37.539Z,99.99
2017-08-01T08:41:46.650Z,99.99
2017-08-01T08:42:55.697Z,99.99
2017-08-01T08:44:05.033Z,99.99
2017-08-01T08:45:14.055Z,99.99
2017-08-01T08:46:23.192Z,99.99
2017-08-01T08:47:32.279Z,99.99
2017-08-01T08:48:41.295Z,99.99
2017-08-01T08:49:50.378Z,99.99
2017-08-01T08:50:59.383Z,99.99
2017-08-01T08:52:08.469Z,99.99
2017-08-01T08:53:17.598Z,99.99
2017-08-01T08:54:26.796Z,99.99
2017-08-01T08:55:35.922Z,99.99
2017-08-01T08:56:45.323Z,99.99
2017-08-01T08:57:54.505Z,99.99
2017-08-01T08:59:03.564Z,99.99
2017-08-01T09:00:12.773Z,99.99
2017-08-01T09:01:21.862Z,99.99
2017-08-01T09:02:31.046Z,99.99
2017-08-01T09:03:40.156Z,99.99
2017-08-01T09:04:49.502Z,99.99
2017-08-01T09:05:58.734Z,99.99
2017-08-01T09:07:07.947Z,99.99
2017-08-01T09:08:16.964Z,99.99
2017-08-01T09:09:25.981Z,99.99
2017-08-01T09:10:35.159Z,99.99
2017-08-01T09:11:44.258Z,99.99
2017-08-01T09:12:53.314Z,99.99
2017-08-01T09:14:02.350Z,99.99
2017-08-01T09:15:11.350Z,99.99
2017-08-01T09:16:20.571Z,99.99
2017-08-01T09:17:29.640Z,99.99
2017-08-01T09:18:38.693Z,99.99
2017-08-01T09:19:47.752Z,99.99
2017-08-01T09:20:56.743Z,99.99
2017-08-01T09:22:05.712Z,99.99
2017-08-01T09:23:14.705Z,99.99
2017-08-01T09:24:23.721Z,99.99
2017-08-01T09:25:32.690Z,99.99
2017-08-01T09:26:41.653Z,99.99
2017-08-01T09:27:50.630Z,99.99
2017-08-01T09:28:59.592Z,99.99
2017-08-01T09:30:08.684Z,99.99
2017-08-01T09:31:17.929Z,99.99
2017-08-01T09:32:26.991Z,99.99
2017-08-01T09:33:35.959Z,99.99
2017-08-01T09:34:45.070Z,99.99
2017-08-01T09:35:54.189Z,99.99
2017-08-01T09:37:03.142Z,99.99
2017-08-01T09:38:12.256Z,99.99
2017-08-01T09:39:21.571Z,99.99
2017-08-01T09:40:30.569Z,99.99
2017-08-01T09:41:39.527Z,99.99
2017-08-01T09:42:48.708Z,99.99
2017-08-01T09:43:57.678Z,99.99
2017-08-01T09:45:06.667Z,99.99
2017-08-01T09:46:15.627Z,99.99
2017-08-01T09:47:24.587Z,99.99
2017-08-01T09:48:33.547Z,99.99
2017-08-01T09:49:42.511Z,99.99
2017-08-01T09:50:51.480Z,99.99
2017-08-01T09:52:00.448Z,99.99
2017-08-01T09:53:09.407Z,99.99
2017-08-01T09:54:18.373Z,99.99
2017-08-01T09:55:27.335Z,99.99
2017-08-01T09:56:36.299Z,99.99
2017-08-01T09:57:45.257Z,99.99
2017-08-01T09:58:54.219Z,99.99
2017-08-01T10:00:03.189Z,99.99
2017-08-01T10:01:12.293Z,99.99
2017-08-01T10:02:21.268Z,99.99
2017-08-01T10:03:30.219Z,99.99
2017-08-01T10:04:39.181Z,99.99
2017-08-01T10:05:48.480Z,99.99
2017-08-01T10:06:57.433Z,99.99
2017-08-01T10:08:06.415Z,99.99
2017-08-01T10:09:15.370Z,99.99
2017-08-01T10:10:24.330Z,99.99
2017-08-01T10:11:33.320Z,99.99
2017-08-01T10:12:42.280Z,99.99
2017-08-01T10:13:51.244Z,99.99
2017-08-01T10:15:00.216Z,99.99
2017-08-01T10:16:09.177Z,99.99
2017-08-01T10:17:18.138Z,99.99
2017-08-01T10:18:27.106Z,99.99
2017-08-01T10:19:36.072Z,99.99
2017-08-01T10:20:45.060Z,99.99
2017-08-01T10:21:54.027Z,99.99
2017-08-01T10:23:03.310Z,99.99
2017-08-01T10:24:12.276Z,99.99
2017-08-01T10:25:21.570Z,99.99
2017-08-01T10:26:30.534Z,99.99
2017-08-01T10:27:39.507Z,99.99
2017-08-01T10:28:48.465Z,99.99
2017-08-01T10:29:57.434Z,99.99
2017-08-01T10:31:06.398Z,99.99
2017-08-01T10:32:15.381Z,99.99
2017-08-01T10:33:24.350Z,99.99
2017-08-01T10:34:33.308Z,99.99
2017-08-01T10:35:42.358Z,99.99
2017-08-01T10:36:51.312Z,99.99
2017-08-01T10:38:00.269Z,99.99
2017-08-01T10:39:09.564Z,99.99
2017-08-01T10:40:18.526Z,99.99
2017-08-01T10:41:27.488Z,99.99
2017-08-01T10:42:36.457Z,99.99
2017-08-01T10:43:45.431Z,99.99
2017-08-01T10:44:54.392Z,99.99
2017-08-01T10:46:03.366Z,99.99
2017-08-01T10:47:12.332Z,99.99
2017-08-01T10:48:21.310Z,99.99
2017-08-01T10:49:30.272Z,99.99
2017-08-01T10:50:39.235Z,99.99
2017-08-01T10:51:48.217Z,99.99
2017-08-01T10:52:57.177Z,99.99
2017-08-01T10:54:06.135Z,99.99
2017-08-01T10:55:15.097Z,99.99
2017-08-01T10:56:24.061Z,99.99
2017-08-01T10:57:33.025Z,99.99
2017-08-01T10:58:41.984Z,99.99
2017-08-01T10:59:51.145Z,99.99
2017-08-01T11:01:00.439Z,99.99
2017-08-01T11:02:09.451Z,99.99
2017-08-01T11:03:18.421Z,99.99
2017-08-01T11:04:27.384Z,99.99
2017-08-01T11:05:36.358Z,99.99
2017-08-01T11:06:45.314Z,99.99
2017-08-01T11:07:54.275Z,99.99
2017-08-01T11:09:03.234Z,99.99
2017-08-01T11:10:12.198Z,99.99
2017-08-01T11:11:21.159Z,99.99
2017-08-01T11:12:30.124Z,99.99
2017-08-01T11:13:39.098Z,99.99
2017-08-01T11:14:48.063Z,99.99
2017-08-01T11:15:57.036Z,99.99
2017-08-01T11:17:05.992Z,99.99
2017-08-01T11:18:14.959Z,99.99
2017-08-01T11:19:23.916Z,99.99
2017-08-01T11:20:32.911Z,99.99
2017-08-01T11:21:41.869Z,99.99
2017-08-01T11:22:50.829Z,99.99
2017-08-01T11:23:59.789Z,99.99
2017-08-01T11:25:09.081Z,99.99
2017-08-01T11:26:18.042Z,99.99
2017-08-01T11:27:27.000Z,99.99
2017-08-01T11:28:35.961Z,99.99
2017-08-01T11:29:44.937Z,99.99
2017-08-01T11:30:53.905Z,99.99
2017-08-01T11:32:02.862Z,99.99
2017-08-01T11:33:11.827Z,99.99
2017-08-01T11:34:20.795Z,99.99
2017-08-01T11:35:29.986Z,99.99
2017-08-01T11:36:38.943Z,99.99
2017-08-01T11:37:47.901Z,99.99
2017-08-01T11:38:56.861Z,99.99
2017-08-01T11:40:05.830Z,99.99
2017-08-01T11:41:14.843Z,99.99
2017-08-01T11:42:23.957Z,99.99
2017-08-01T11:43:33.038Z,99.99
2017-08-01T11:44:42.130Z,99.99
2017-08-01T11:45:51.092Z,99.99
2017-08-01T11:47:00.053Z,99.99
2017-08-01T11:48:09.533Z,99.99
2017-08-01T11:49:18.712Z,99.99
2017-08-01T11:50:27.677Z,99.99
2017-08-01T11:51:36.962Z,99.99
2017-08-01T11:52:57.812Z,99.99
2017-08-01T11:54:21.710Z,99.99
2017-08-01T11:55:42.080Z,99.99
2017-08-01T11:56:53.086Z,99.99
2017-08-01T11:58:02.046Z,99.99
2017-08-01T11:59:11.011Z,99.99
2017-08-01T12:00:19.980Z,99.99
2017-08-01T12:01:28.940Z,99.99
2017-08-01T12:02:37.899Z,99.99
2017-08-01T12:03:46.857Z,99.99
2017-08-01T12:04:55.831Z,99.99
2017-08-01T12:06:04.795Z,99.99
2017-08-01T12:07:13.762Z,99.99
2017-08-01T12:08:22.722Z,99.99
2017-08-01T12:09:31.684Z,99.99
2017-08-01T12:10:40.635Z,99.99
2017-08-01T12:11:49.594Z,99.99
2017-08-01T12:12:58.560Z,99.99
2017-08-01T12:14:07.538Z,99.99
2017-08-01T12:15:16.501Z,99.99
2017-08-01T12:16:25.469Z,99.99
2017-08-01T12:17:34.445Z,99.99
2017-08-01T12:18:43.412Z,99.99
2017-08-01T12:19:52.379Z,99.99
2017-08-01T12:21:01.355Z,99.99
2017-08-01T12:22:10.322Z,99.99
2017-08-01T12:23:19.604Z,99.99
2017-08-01T12:24:28.565Z,99.99
2017-08-01T12:25:37.524Z,99.99
2017-08-01T12:26:46.490Z,99.99
2017-08-01T12:27:55.460Z,99.99
2017-08-01T12:29:04.428Z,99.99
2017-08-01T12:30:13.392Z,99.99
2017-08-01T12:31:22.356Z,99.99
2017-08-01T12:32:31.325Z,99.99
2017-08-01T12:33:40.300Z,99.99
2017-08-01T12:34:49.266Z,99.99
2017-08-01T12:35:58.237Z,99.99
2017-08-01T12:37:07.208Z,99.99
2017-08-01T12:38:16.172Z,99.99
2017-08-01T12:39:25.131Z,99.99
2017-08-01T12:40:34.087Z,99.99
2017-08-01T12:41:43.364Z,99.99
2017-08-01T12:42:52.336Z,99.99
2017-08-01T12:44:01.309Z,99.99
2017-08-01T12:45:10.278Z,99.99
2017-08-01T12:46:19.243Z,99.99
2017-08-01T12:47:28.204Z,99.99
2017-08-01T12:48:37.165Z,99.99
2017-08-01T12:49:46.131Z,99.99
2017-08-01T12:50:55.089Z,99.99
2017-08-01T12:52:04.395Z,99.99
2017-08-01T12:53:13.361Z,99.99
2017-08-01T12:54:22.315Z,99.99
2017-08-01T12:55:31.277Z,99.99
2017-08-01T12:56:40.247Z,99.99
2017-08-01T12:57:49.215Z,99.99
2017-08-01T12:58:58.181Z,99.99
2017-08-01T13:00:07.151Z,99.99
2017-08-01T13:01:16.128Z,99.99
2017-08-01T13:02:25.088Z,99.99
2017-08-01T13:03:34.057Z,99.99
2017-08-01T13:04:43.017Z,99.99
2017-08-01T13:05:51.990Z,99.99
2017-08-01T13:07:00.952Z,99.99
2017-08-01T13:08:09.919Z,99.99
2017-08-01T13:09:18.889Z,99.99
2017-08-01T13:10:27.849Z,99.99
2017-08-01T13:11:36.810Z,99.99
2017-08-01T13:12:45.777Z,99.99
2017-08-01T13:13:54.741Z,99.99
2017-08-01T13:15:03.710Z,99.99
2017-08-01T13:16:12.681Z,99.99
2017-08-01T13:17:21.645Z,99.99
2017-08-01T13:18:30.607Z,99.99
2017-08-01T13:19:39.570Z,99.99
2017-08-01T13:20:48.856Z,99.99
2017-08-01T13:21:57.828Z,99.99
2017-08-01T13:23:06.791Z,99.99
2017-08-01T13:24:15.749Z,99.99
2017-08-01T13:25:24.717Z,99.99
2017-08-01T13:26:33.998Z,99.99
2017-08-01T13:27:42.955Z,99.99
2017-08-01T13:28:51.915Z,99.99
2017-08-01T13:30:00.886Z,99.99
2017-08-01T13:31:09.850Z,99.99
2017-08-01T13:32:18.810Z,99.99
2017-08-01T13:33:27.767Z,99.99
2017-08-01T13:34:36.732Z,99.99
2017-08-01T13:35:45.700Z,99.99
2017-08-01T13:36:54.666Z,99.99
2017-08-01T13:38:03.635Z,99.99
2017-08-01T13:39:12.589Z,99.99
2017-08-01T13:40:21.553Z,99.99
2017-08-01T13:41:30.515Z,99.99
2017-08-01T13:42:39.473Z,99.99
2017-08-01T13:43:48.443Z,99.99
2017-08-01T13:44:57.413Z,99.99
2017-08-01T13:46:06.377Z,99.99
2017-08-01T13:47:15.343Z,99.99
2017-08-01T13:48:24.307Z,99.99
2017-08-01T13:49:33.276Z,99.99
2017-08-01T13:50:42.247Z,99.99
2017-08-01T13:51:51.212Z,99.99
2017-08-01T13:53:00.529Z,99.99
2017-08-01T13:54:09.501Z,99.99
2017-08-01T13:55:18.473Z,99.99
2017-08-01T13:56:27.431Z,99.99
2017-08-01T13:57:36.394Z,99.99
2017-08-01T13:58:45.362Z,99.99
2017-08-01T13:59:54.328Z,99.99
2017-08-01T14:01:03.320Z,99.99
2017-08-01T14:02:12.607Z,99.99
2017-08-01T14:03:21.578Z,99.99
2017-08-01T14:04:30.544Z,99.99
2017-08-01T14:05:39.509Z,99.99
2017-08-01T14:06:48.491Z,99.99
2017-08-01T14:07:57.781Z,99.99
2017-08-01T14:09:06.744Z,99.99
2017-08-01T14:10:15.806Z,99.99
2017-08-01T14:11:24.810Z,99.99
2017-08-01T14:12:33.808Z,99.99
2017-08-01T14:13:43.101Z,99.99
2017-08-01T14:14:52.085Z,99.99
2017-08-01T14:16:01.060Z,99.99
2017-08-01T14:17:10.046Z,99.99
2017-08-01T14:18:19.034Z,99.99
2017-08-01T14:19:28.029Z,99.99
2017-08-01T14:20:37.009Z,99.99
2017-08-01T14:21:45.996Z,99.99
2017-08-01T14:22:54.988Z,99.99
2017-08-01T14:24:03.984Z,99.99
2017-08-01T14:25:12.980Z,99.99
2017-08-01T14:26:21.979Z,99.99
2017-08-01T14:27:30.969Z,99.99
2017-08-01T14:28:39.962Z,99.99
2017-08-01T14:29:48.960Z,99.99
2017-08-01T14:30:57.945Z,99.99
2017-08-01T14:32:07.267Z,99.99
2017-08-01T14:33:16.252Z,99.99
2017-08-01T14:34:25.246Z,99.99
2017-08-01T14:35:34.253Z,99.99
2017-08-01T14:36:43.245Z,99.99
2017-08-01T14:37:52.249Z,99.99
2017-08-01T14:39:01.238Z,99.99
2017-08-01T14:40:10.229Z,99.99
2017-08-01T14:41:19.220Z,99.99
2017-08-01T14:42:28.219Z,99.99
2017-08-01T14:43:37.218Z,99.99
2017-08-01T14:44:46.209Z,99.99
2017-08-01T14:45:55.285Z,99.99
2017-08-01T14:47:04.495Z,99.99
2017-08-01T14:48:13.485Z,99.99
2017-08-01T14:49:22.501Z,99.99
2017-08-01T14:50:31.485Z,99.99